Time;durP1;ratioP1;P1;durP2;ratioP2;P2;SDS_P1;SDS_P2;PMS_P1;PMS_P2;Temp;Humidity;BMP_temperature;BMP_pressure;BME280_temperature;BME280_humidity;BME280_pressure;Samples;Min_cycle;Max_cycle;Signal;HPM_P1;HPM_P2
2023/03/07 00:00:36;;;;;;;25.90;13.10;;;;;;;;;;5012987;28;20418;-79
2023/03/07 00:03:02;;;;;;;28.70;11.73;;;;;;;;;;5010403;28;20077;-78
2023/03/07 00:05:27;;;;;;;24.47;11.10;;;;;;;;;;5013420;28;20006;-78
2023/03/07 00:07:53;;;;;;;26.23;11.43;;;;;;;;;;5013333;28;20083;-80
2023/03/07 00:10:18;;;;;;;27.70;12.27;;;;;;;;;;5012873;28;20294;-79
2023/03/07 00:12:44;;;;;;;27.90;12.23;;;;;;;;;;5012626;28;20022;-80
2023/03/07 00:15:10;;;;;;;24.97;11.77;;;;;;;;;;5012788;28;20080;-80
2023/03/07 00:17:36;;;;;;;25.23;11.30;;;;;;;;;;5011944;28;20020;-80
2023/03/07 00:20:07;;;;;;;27.33;12.10;;;;;;;;;;5013313;28;20030;-79
2023/03/07 00:22:36;;;;;;;30.57;11.33;;;;;;;;;;5011205;28;20083;-79
2023/03/07 00:25:03;;;;;;;27.70;12.63;;;;;;;;;;5010981;28;20394;-78
2023/03/07 00:27:30;;;;;;;29.60;12.33;;;;;;;;;;5010535;28;20492;-79
2023/03/07 00:29:56;;;;;;;24.17;11.03;;;;;;;;;;5011324;28;20025;-79
2023/03/07 00:32:22;;;;;;;25.53;11.00;;;;;;;;;;5013104;28;20512;-78
2023/03/07 00:34:47;;;;;;;28.47;12.07;;;;;;;;;;5012160;28;20029;-79
2023/03/07 00:37:14;;;;;;;23.10;11.50;;;;;;;;;;5012513;28;20072;-79
2023/03/07 00:39:40;;;;;;;26.13;11.63;;;;;;;;;;5012197;28;20509;-79
2023/03/07 00:42:06;;;;;;;25.77;11.63;;;;;;;;;;5010439;28;20385;-79
2023/03/07 00:44:31;;;;;;;27.47;11.40;;;;;;;;;;5011285;28;20100;-78
2023/03/07 00:46:57;;;;;;;24.77;11.37;;;;;;;;;;5011559;28;20087;-79
2023/03/07 00:49:23;;;;;;;21.67;10.57;;;;;;;;;;5013066;28;20037;-79
2023/03/07 00:51:48;;;;;;;22.23;11.17;;;;;;;;;;5007861;28;20014;-78
2023/03/07 00:54:14;;;;;;;22.47;12.10;;;;;;;;;;5012101;28;20034;-79
2023/03/07 00:56:40;;;;;;;22.47;11.50;;;;;;;;;;5011763;28;20494;-78
2023/03/07 00:59:06;;;;;;;23.13;11.20;;;;;;;;;;5010524;28;20137;-78
2023/03/07 01:01:32;;;;;;;23.00;11.27;;;;;;;;;;5012059;28;20046;-79
2023/03/07 01:03:57;;;;;;;25.30;12.83;;;;;;;;;;5009525;28;20072;-79
2023/03/07 01:06:25;;;;;;;26.97;11.63;;;;;;;;;;5011363;28;20276;-78
2023/03/07 01:08:51;;;;;;;27.73;12.13;;;;;;;;;;5011439;28;20105;-78
2023/03/07 01:11:17;;;;;;;26.93;11.27;;;;;;;;;;5010199;28;20057;-79
2023/03/07 01:13:43;;;;;;;23.57;11.03;;;;;;;;;;5010607;28;20034;-79
2023/03/07 01:16:17;;;;;;;23.87;11.83;;;;;;;;;;5011739;28;20095;-78
2023/03/07 01:18:50;;;;;;;25.30;10.57;;;;;;;;;;5012341;28;20034;-79
2023/03/07 01:21:22;;;;;;;22.80;10.90;;;;;;;;;;5011725;28;20382;-79
2023/03/07 01:23:47;;;;;;;23.65;11.27;;;;;;;;;;5010649;28;20061;-79
2023/03/07 01:26:16;;;;;;;29.10;11.13;;;;;;;;;;5011753;28;20525;-79
2023/03/07 01:28:42;;;;;;;30.53;12.80;;;;;;;;;;5011624;28;20516;-78
2023/03/07 01:31:08;;;;;;;21.83;10.40;;;;;;;;;;5011316;28;20022;-79
2023/03/07 01:33:34;;;;;;;22.60;10.80;;;;;;;;;;5011572;28;20033;-79
2023/03/07 01:35:59;;;;;;;25.87;11.43;;;;;;;;;;5009897;28;20065;-79
2023/03/07 01:38:27;;;;;;;23.97;11.47;;;;;;;;;;4993173;28;20103;-79
2023/03/07 01:40:52;;;;;;;25.20;11.20;;;;;;;;;;5009866;28;20030;-79
2023/03/07 01:43:31;;;;;;;24.23;11.20;;;;;;;;;;5011857;28;20064;-80
2023/03/07 01:46:21;;;;;;;25.57;12.10;;;;;;;;;;5011662;28;20068;-78
2023/03/07 01:48:52;;;;;;;24.60;10.37;;;;;;;;;;5010542;28;20484;-80
2023/03/07 01:51:19;;;;;;;26.10;11.40;;;;;;;;;;5010782;28;20028;-79
2023/03/07 01:53:47;;;;;;;26.30;12.00;;;;;;;;;;5010717;28;20037;-78
2023/03/07 01:56:13;;;;;;;25.17;11.53;;;;;;;;;;5010825;28;20080;-78
2023/03/07 01:58:39;;;;;;;21.33;10.20;;;;;;;;;;5009671;28;20124;-79
2023/03/07 02:01:11;;;;;;;22.23;11.50;;;;;;;;;;5008371;28;20109;-79
2023/03/07 02:03:49;;;;;;;;;;;;;;;;;;5009934;28;20096;-79
2023/03/07 02:06:15;;;;;;;24.40;10.80;;;;;;;;;;5009492;28;19910;-79
2023/03/07 02:08:42;;;;;;;24.83;10.40;;;;;;;;;;5010625;28;20048;-79
2023/03/07 02:11:09;;;;;;;24.57;11.03;;;;;;;;;;5010772;28;20414;-79
2023/03/07 02:13:35;;;;;;;23.10;11.13;;;;;;;;;;5007275;28;20025;-79
2023/03/07 02:16:01;;;;;;;24.70;11.13;;;;;;;;;;5009166;28;20132;-79
2023/03/07 02:18:31;;;;;;;28.13;12.03;;;;;;;;;;5008574;28;20055;-79
2023/03/07 02:21:02;;;;;;;25.80;11.40;;;;;;;;;;5009102;28;20510;-79
2023/03/07 02:23:49;;;;;;;26.20;11.27;;;;;;;;;;5011314;28;20103;-79
2023/03/07 02:26:29;;;;;;;23.33;10.80;;;;;;;;;;5013967;28;20030;-77
2023/03/07 02:28:55;;;;;;;23.90;11.23;;;;;;;;;;5013834;28;20037;-79
2023/03/07 02:31:21;;;;;;;22.43;11.53;;;;;;;;;;5014613;28;20024;-79
2023/03/07 02:33:48;;;;;;;27.97;10.93;;;;;;;;;;5013217;28;20026;-78
2023/03/07 02:36:19;;;;;;;28.10;11.13;;;;;;;;;;5014083;28;20026;-79
2023/03/07 02:38:47;;;;;;;22.70;11.13;;;;;;;;;;5014262;28;20488;-79
2023/03/07 02:41:15;;;;;;;21.97;10.73;;;;;;;;;;5014478;28;20448;-78
2023/03/07 02:43:40;;;;;;;22.93;10.30;;;;;;;;;;5014648;28;20161;-78
2023/03/07 02:46:05;;;;;;;23.87;11.80;;;;;;;;;;5012991;28;20120;-78
2023/03/07 02:48:31;;;;;;;25.30;11.13;;;;;;;;;;5014662;28;20359;-79
2023/03/07 02:50:56;;;;;;;23.87;10.47;;;;;;;;;;5014170;28;20041;-78
2023/03/07 02:53:22;;;;;;;26.40;11.43;;;;;;;;;;5011817;28;20022;-78
2023/03/07 02:55:48;;;;;;;23.30;10.57;;;;;;;;;;5014166;28;20034;-78
2023/03/07 02:58:13;;;;;;;20.97;10.07;;;;;;;;;;5012440;28;20245;-80
2023/03/07 03:00:39;;;;;;;22.33;10.90;;;;;;;;;;5013925;28;20041;-80
2023/03/07 03:03:04;;;;;;;23.37;10.63;;;;;;;;;;5011522;28;20421;-78
2023/03/07 03:05:30;;;;;;;20.43;9.53;;;;;;;;;;5012662;28;20125;-78
2023/03/07 03:07:56;;;;;;;26.23;10.60;;;;;;;;;;4997968;28;20026;-77
2023/03/07 03:10:21;;;;;;;23.30;10.57;;;;;;;;;;5014023;28;20593;-78
2023/03/07 03:12:47;;;;;;;23.13;11.13;;;;;;;;;;5013152;28;20044;-78
2023/03/07 03:15:12;;;;;;;22.97;10.53;;;;;;;;;;5012943;28;20076;-78
2023/03/07 03:17:38;;;;;;;22.00;9.90;;;;;;;;;;5014618;28;20436;-80
2023/03/07 03:20:10;;;;;;;23.33;9.40;;;;;;;;;;5012631;28;20438;-79
2023/03/07 03:22:37;;;;;;;20.23;9.80;;;;;;;;;;5014052;28;20065;-79
2023/03/07 03:25:03;;;;;;;20.33;10.20;;;;;;;;;;5013535;28;20559;-79
2023/03/07 03:27:32;;;;;;;17.37;8.63;;;;;;;;;;5014415;28;20406;-79
2023/03/07 03:29:57;;;;;;;20.07;9.27;;;;;;;;;;5012768;28;20181;-78
2023/03/07 03:32:23;;;;;;;20.30;10.10;;;;;;;;;;5012113;28;20116;-79
2023/03/07 03:34:48;;;;;;;26.80;8.87;;;;;;;;;;5013430;28;20037;-79
2023/03/07 03:37:14;;;;;;;25.37;10.57;;;;;;;;;;5010895;28;20037;-79
2023/03/07 03:39:39;;;;;;;23.63;10.40;;;;;;;;;;5001195;28;20046;-79
2023/03/07 03:42:05;;;;;;;27.67;9.93;;;;;;;;;;4992966;28;20010;-79
2023/03/07 03:44:30;;;;;;;19.07;9.20;;;;;;;;;;5002413;28;20660;-80
2023/03/07 03:46:56;;;;;;;23.60;10.17;;;;;;;;;;5013028;28;20099;-79
2023/03/07 03:49:21;;;;;;;23.60;10.10;;;;;;;;;;5011790;28;20088;-78
2023/03/07 03:51:47;;;;;;;22.27;10.03;;;;;;;;;;5012939;28;20030;-79
2023/03/07 03:54:12;;;;;;;21.90;9.30;;;;;;;;;;5011507;28;20061;-80
2023/03/07 03:56:38;;;;;;;19.80;8.63;;;;;;;;;;5012941;28;20416;-79
2023/03/07 03:59:03;;;;;;;20.23;9.57;;;;;;;;;;5011035;28;20117;-78
2023/03/07 04:01:29;;;;;;;21.20;9.23;;;;;;;;;;5011657;28;20117;-80
2023/03/07 04:03:55;;;;;;;20.87;9.30;;;;;;;;;;5010995;28;20080;-80
2023/03/07 04:06:23;;;;;;;20.23;9.23;;;;;;;;;;5011610;28;20053;-80
2023/03/07 04:08:50;;;;;;;23.97;8.80;;;;;;;;;;5010947;28;20036;-80
2023/03/07 04:11:16;;;;;;;21.83;9.73;;;;;;;;;;5011707;28;20346;-79
2023/03/07 04:13:42;;;;;;;29.97;8.83;;;;;;;;;;5013546;28;20061;-79
2023/03/07 04:16:08;;;;;;;22.37;9.00;;;;;;;;;;5010866;28;20021;-79
2023/03/07 04:18:34;;;;;;;25.67;10.00;;;;;;;;;;5012827;28;20097;-80
2023/03/07 04:21:00;;;;;;;21.83;9.10;;;;;;;;;;5012405;28;20029;-79
2023/03/07 04:23:27;;;;;;;21.33;8.70;;;;;;;;;;5012245;28;20018;-79
2023/03/07 04:25:57;;;;;;;20.13;9.40;;;;;;;;;;4992688;28;20086;-79
2023/03/07 04:28:26;;;;;;;28.53;9.70;;;;;;;;;;4991629;28;20030;-80
2023/03/07 04:30:52;;;;;;;19.83;8.93;;;;;;;;;;5010789;28;20026;-79
2023/03/07 04:33:19;;;;;;;22.03;9.67;;;;;;;;;;5010706;28;20029;-80
2023/03/07 04:35:47;;;;;;;19.47;8.83;;;;;;;;;;5012570;28;20121;-79
2023/03/07 04:38:14;;;;;;;19.40;8.50;;;;;;;;;;5011043;28;20037;-79
2023/03/07 04:40:40;;;;;;;20.17;9.23;;;;;;;;;;5009786;28;20135;-78
2023/03/07 04:43:05;;;;;;;28.00;10.07;;;;;;;;;;5011759;28;20512;-79
2023/03/07 04:45:38;;;;;;;19.70;9.50;;;;;;;;;;5010642;28;20060;-79
2023/03/07 04:48:04;;;;;;;23.97;9.17;;;;;;;;;;4995156;28;20034;-80
2023/03/07 04:50:30;;;;;;;21.73;9.00;;;;;;;;;;5010871;28;20262;-79
2023/03/07 04:52:55;;;;;;;20.30;9.33;;;;;;;;;;5011895;28;20056;-80
2023/03/07 04:55:21;;;;;;;16.17;7.57;;;;;;;;;;5012057;28;20422;-80
2023/03/07 04:57:46;;;;;;;21.23;8.80;;;;;;;;;;5011858;28;20125;-80
2023/03/07 05:00:13;;;;;;;26.70;10.17;;;;;;;;;;5009917;28;20044;-80
2023/03/07 05:02:39;;;;;;;22.83;9.27;;;;;;;;;;5009871;28;20026;-79
2023/03/07 05:05:05;;;;;;;19.03;8.77;;;;;;;;;;5011733;28;20097;-79
2023/03/07 05:07:31;;;;;;;24.37;8.37;;;;;;;;;;5011389;28;20474;-79
2023/03/07 05:09:57;;;;;;;19.10;8.50;;;;;;;;;;5010647;28;20037;-79
2023/03/07 05:12:23;;;;;;;20.10;9.20;;;;;;;;;;5012332;28;20073;-79
2023/03/07 05:14:49;;;;;;;15.37;7.40;;;;;;;;;;5010323;28;20117;-79
2023/03/07 05:17:15;;;;;;;24.37;9.33;;;;;;;;;;5011568;28;20084;-78
2023/03/07 05:19:40;;;;;;;18.57;7.97;;;;;;;;;;5010573;28;20029;-78
2023/03/07 05:22:06;;;;;;;15.37;7.67;;;;;;;;;;5012259;28;20048;-81
2023/03/07 05:24:32;;;;;;;24.20;9.67;;;;;;;;;;5010138;28;20099;-80
2023/03/07 05:26:57;;;;;;;24.50;8.77;;;;;;;;;;5010897;28;20426;-79
2023/03/07 05:29:23;;;;;;;22.07;9.10;;;;;;;;;;5007061;28;20026;-81
2023/03/07 05:31:48;;;;;;;20.77;8.77;;;;;;;;;;5002942;28;20359;-77
2023/03/07 05:34:15;;;;;;;20.60;8.37;;;;;;;;;;5008052;28;20409;-79
2023/03/07 05:36:41;;;;;;;30.10;9.47;;;;;;;;;;5008373;28;20656;-79
2023/03/07 05:39:07;;;;;;;18.13;8.17;;;;;;;;;;5015117;28;20121;-79
2023/03/07 05:41:33;;;;;;;19.03;8.43;;;;;;;;;;5000714;28;20109;-78
2023/03/07 05:43:58;;;;;;;20.03;9.17;;;;;;;;;;5008214;28;20033;-80
2023/03/07 05:46:24;;;;;;;20.00;9.33;;;;;;;;;;5012315;28;20018;-81
2023/03/07 05:48:50;;;;;;;21.07;8.43;;;;;;;;;;5010008;28;20026;-79
2023/03/07 05:51:15;;;;;;;16.43;8.20;;;;;;;;;;5007879;28;20504;-81
2023/03/07 05:53:41;;;;;;;18.30;9.00;;;;;;;;;;5001767;28;20030;-78
2023/03/07 05:56:08;;;;;;;25.67;10.00;;;;;;;;;;4998416;28;20438;-80
2023/03/07 05:58:33;;;;;;;24.27;9.63;;;;;;;;;;5005495;28;20029;-79
2023/03/07 06:01:01;;;;;;;21.23;9.07;;;;;;;;;;5003271;28;20567;-80
2023/03/07 06:03:27;;;;;;;22.43;10.40;;;;;;;;;;5007429;28;20112;-79
2023/03/07 06:05:52;;;;;;;24.60;9.87;;;;;;;;;;5009040;28;20105;-79
2023/03/07 06:08:17;;;;;;;22.67;9.70;;;;;;;;;;5007105;28;20021;-81
2023/03/07 06:10:43;;;;;;;19.87;8.90;;;;;;;;;;5008293;28;20030;-79
2023/03/07 06:13:16;;;;;;;20.43;9.03;;;;;;;;;;5002311;28;20112;-78
2023/03/07 06:15:42;;;;;;;19.07;8.50;;;;;;;;;;5004663;28;20088;-77
2023/03/07 06:18:08;;;;;;;21.13;9.43;;;;;;;;;;5008126;28;20048;-77
2023/03/07 06:20:33;;;;;;;17.90;8.50;;;;;;;;;;5005672;28;20465;-79
2023/03/07 06:22:59;;;;;;;19.80;9.23;;;;;;;;;;5004200;28;20022;-79
2023/03/07 06:25:25;;;;;;;18.60;9.57;;;;;;;;;;5004601;28;20452;-80
2023/03/07 06:27:50;;;;;;;17.27;8.80;;;;;;;;;;5010103;28;20081;-82
2023/03/07 06:30:16;;;;;;;22.93;9.27;;;;;;;;;;5007755;28;20466;-81
2023/03/07 06:32:42;;;;;;;19.67;8.07;;;;;;;;;;5003977;28;20025;-79
2023/03/07 06:35:08;;;;;;;23.17;9.77;;;;;;;;;;5004671;28;20521;-81
2023/03/07 06:37:33;;;;;;;18.53;8.40;;;;;;;;;;5006167;28;20120;-81
2023/03/07 06:39:59;;;;;;;23.50;8.57;;;;;;;;;;5005067;28;20176;-81
2023/03/07 06:42:24;;;;;;;24.43;9.23;;;;;;;;;;5004696;28;20080;-79
2023/03/07 06:44:50;;;;;;;16.83;8.07;;;;;;;;;;5007888;28;20030;-80
2023/03/07 06:47:15;;;;;;;19.77;8.70;;;;;;;;;;5006259;28;20030;-80
2023/03/07 06:49:41;;;;;;;18.07;8.07;;;;;;;;;;5007076;28;20033;-82
2023/03/07 06:52:06;;;;;;;22.53;9.57;;;;;;;;;;5007685;28;20033;-80
2023/03/07 06:54:32;;;;;;;15.50;8.27;;;;;;;;;;4997597;28;20030;-80
2023/03/07 06:56:58;;;;;;;18.27;8.40;;;;;;;;;;4999345;28;20037;-83
2023/03/07 06:59:23;;;;;;;25.27;8.77;;;;;;;;;;5008453;28;20030;-78
2023/03/07 07:01:49;;;;;;;20.90;9.27;;;;;;;;;;5003557;28;20029;-82
2023/03/07 07:04:14;;;;;;;18.40;8.60;;;;;;;;;;5008634;28;20030;-80
2023/03/07 07:06:40;;;;;;;19.60;8.57;;;;;;;;;;5003558;28;20045;-79
2023/03/07 07:09:05;;;;;;;25.37;10.07;;;;;;;;;;5006736;28;20030;-82
2023/03/07 07:11:31;;;;;;;24.23;9.13;;;;;;;;;;5011446;28;20407;-79
2023/03/07 07:13:57;;;;;;;19.00;8.53;;;;;;;;;;5009122;28;20087;-79
2023/03/07 07:16:32;;;;;;;25.90;10.03;;;;;;;;;;5009708;28;20493;-80
2023/03/07 07:18:57;;;;;;;21.53;8.43;;;;;;;;;;5005746;28;20099;-79
2023/03/07 07:21:23;;;;;;;19.37;9.33;;;;;;;;;;5003112;28;20038;-80
2023/03/07 07:23:49;;;;;;;18.43;7.63;;;;;;;;;;5006517;28;20056;-81
2023/03/07 07:26:14;;;;;;;16.37;8.17;;;;;;;;;;5008125;28;20089;-79
2023/03/07 07:28:40;;;;;;;19.43;8.80;;;;;;;;;;4999404;28;20045;-80
2023/03/07 07:31:06;;;;;;;18.27;9.67;;;;;;;;;;5002014;28;20397;-80
2023/03/07 07:33:32;;;;;;;16.93;8.63;;;;;;;;;;5005231;28;20402;-80
2023/03/07 07:35:58;;;;;;;19.53;8.63;;;;;;;;;;5003108;28;20469;-79
2023/03/07 07:38:24;;;;;;;17.70;8.30;;;;;;;;;;5008010;28;20036;-82
2023/03/07 07:40:49;;;;;;;16.63;7.37;;;;;;;;;;5001709;28;20193;-80
2023/03/07 07:43:16;;;;;;;16.37;8.40;;;;;;;;;;5004898;28;20033;-81
2023/03/07 07:45:42;;;;;;;21.77;8.73;;;;;;;;;;5004328;28;20430;-80
2023/03/07 07:48:08;;;;;;;17.57;8.20;;;;;;;;;;5003078;28;20034;-80
2023/03/07 07:50:33;;;;;;;21.07;8.43;;;;;;;;;;5007682;28;20068;-80
2023/03/07 07:52:59;;;;;;;17.27;8.23;;;;;;;;;;5006635;28;20624;-82
2023/03/07 07:55:25;;;;;;;19.07;8.73;;;;;;;;;;4998512;28;20034;-80
2023/03/07 07:57:51;;;;;;;18.13;8.17;;;;;;;;;;5005728;28;20028;-80
2023/03/07 08:03:44;;;;;;;30.00;8.13;;;;;;;;;;4997089;28;20497;-80
2023/03/07 08:06:11;;;;;;;15.83;7.13;;;;;;;;;;5002458;28;20078;-79
2023/03/07 08:08:37;;;;;;;17.33;7.70;;;;;;;;;;5004330;28;20070;-78
2023/03/07 08:11:04;;;;;;;15.43;7.70;;;;;;;;;;4999545;28;20331;-78
2023/03/07 08:13:31;;;;;;;19.83;8.03;;;;;;;;;;5018252;28;20026;-79
2023/03/07 08:15:57;;;;;;;18.80;7.50;;;;;;;;;;5001870;28;20379;-79
2023/03/07 08:18:23;;;;;;;13.50;6.77;;;;;;;;;;5000997;28;20030;-80
2023/03/07 08:20:50;;;;;;;14.70;8.10;;;;;;;;;;5003810;28;20026;-79
2023/03/07 08:23:16;;;;;;;17.10;7.73;;;;;;;;;;5005215;28;20030;-80
2023/03/07 08:25:45;;;;;;;16.93;7.33;;;;;;;;;;5003542;28;20371;-78
2023/03/07 08:28:10;;;;;;;15.40;7.90;;;;;;;;;;5001948;28;20159;-78
2023/03/07 08:30:37;;;;;;;17.00;7.50;;;;;;;;;;5005093;28;20038;-79
2023/03/07 08:33:02;;;;;;;14.90;6.87;;;;;;;;;;4998417;28;20013;-79
2023/03/07 08:35:30;;;;;;;19.70;8.40;;;;;;;;;;5004283;28;20386;-78
2023/03/07 08:38:00;;;;;;;17.23;7.07;;;;;;;;;;5002361;28;20659;-77
2023/03/07 08:40:27;;;;;;;15.47;7.87;;;;;;;;;;4999750;28;20045;-80
2023/03/07 08:42:56;;;;;;;17.60;7.73;;;;;;;;;;5001885;28;20029;-80
2023/03/07 08:45:22;;;;;;;16.70;7.67;;;;;;;;;;5000699;28;20385;-78
2023/03/07 08:47:50;;;;;;;16.83;8.00;;;;;;;;;;5001032;28;20109;-77
2023/03/07 08:50:21;;;;;;;18.83;7.47;;;;;;;;;;4999791;28;20590;-80
2023/03/07 08:52:46;;;;;;;19.77;8.77;;;;;;;;;;5002406;28;20022;-80
2023/03/07 08:55:12;;;;;;;21.23;8.03;;;;;;;;;;5001954;28;20149;-78
2023/03/07 08:57:38;;;;;;;16.17;7.80;;;;;;;;;;5004145;28;20099;-77
2023/03/07 09:00:08;;;;;;;14.13;7.80;;;;;;;;;;5003494;28;20540;-79
2023/03/07 09:02:33;;;;;;;21.13;7.43;;;;;;;;;;5005011;28;20026;-79
2023/03/07 09:04:59;;;;;;;21.03;8.67;;;;;;;;;;5002426;28;20034;-80
2023/03/07 09:07:26;;;;;;;17.83;8.07;;;;;;;;;;5000790;28;20048;-81
2023/03/07 09:09:51;;;;;;;16.10;7.17;;;;;;;;;;5000031;28;20045;-79
2023/03/07 09:12:17;;;;;;;21.10;6.80;;;;;;;;;;4997215;28;20032;-78
2023/03/07 09:14:42;;;;;;;18.33;8.17;;;;;;;;;;5002155;28;20035;-78
2023/03/07 09:17:08;;;;;;;17.17;7.50;;;;;;;;;;4999446;28;20111;-77
2023/03/07 09:19:34;;;;;;;13.07;6.03;;;;;;;;;;5005378;28;20064;-78
2023/03/07 09:21:59;;;;;;;17.07;8.27;;;;;;;;;;5003777;28;20861;-79
2023/03/07 09:24:25;;;;;;;14.40;7.20;;;;;;;;;;5001023;28;20034;-80
2023/03/07 09:26:51;;;;;;;14.93;7.00;;;;;;;;;;4992570;28;20028;-77
2023/03/07 09:29:17;;;;;;;14.20;6.50;;;;;;;;;;5003061;28;20033;-77
2023/03/07 09:31:43;;;;;;;18.40;7.73;;;;;;;;;;5005369;28;20030;-79
2023/03/07 09:34:09;;;;;;;15.23;6.70;;;;;;;;;;5003603;28;20041;-78
2023/03/07 09:36:36;;;;;;;15.10;6.43;;;;;;;;;;5001398;28;20038;-78
2023/03/07 09:39:03;;;;;;;16.13;7.13;;;;;;;;;;4998418;28;20059;-78
2023/03/07 09:41:34;;;;;;;13.47;6.93;;;;;;;;;;5004724;28;20053;-79
2023/03/07 09:44:31;;;;;;;12.38;6.28;;;;;;;;;;5007069;28;20119;-78
2023/03/07 09:47:11;;;;;;;21.10;6.93;;;;;;;;;;4990944;28;20064;-79
2023/03/07 09:49:46;;;;;;;12.03;6.50;;;;;;;;;;5001863;28;20026;-79
2023/03/07 09:52:20;;;;;;;12.87;6.43;;;;;;;;;;4995925;28;20137;-78
2023/03/07 09:55:09;;;;;;;14.57;6.37;;;;;;;;;;4997628;28;20025;-79
2023/03/07 09:57:58;;;;;;;12.37;6.20;;;;;;;;;;4995570;28;20423;-76
2023/03/07 10:00:35;;;;;;;16.90;7.47;;;;;;;;;;5000813;28;20046;-77
2023/03/07 10:03:50;;;;;;;11.73;6.53;;;;;;;;;;5001407;28;20472;-76
2023/03/07 10:06:36;;;;;;;14.07;5.70;;;;;;;;;;4994882;28;20034;-77
2023/03/07 10:09:04;;;;;;;13.27;6.20;;;;;;;;;;5001609;28;20032;-77
2023/03/07 10:11:51;;;;;;;12.63;6.47;;;;;;;;;;5005858;28;20082;-79
2023/03/07 10:14:42;;;;;;;12.63;6.67;;;;;;;;;;5002052;28;20030;-79
2023/03/07 10:17:19;;;;;;;13.47;6.37;;;;;;;;;;4996827;28;20038;-79
2023/03/07 10:19:55;;;;;;;16.67;6.37;;;;;;;;;;5006294;28;20030;-78
2023/03/07 10:22:47;;;;;;;14.10;6.37;;;;;;;;;;5001298;28;20030;-78
2023/03/07 10:25:16;;;;;;;15.48;6.15;;;;;;;;;;5003571;28;20042;-79
2023/03/07 10:27:45;;;;;;;12.20;6.50;;;;;;;;;;5006337;28;20038;-78
2023/03/07 10:30:16;;;;;;;10.47;5.47;;;;;;;;;;5002870;28;20335;-76
2023/03/07 10:32:46;;;;;;;11.23;5.23;;;;;;;;;;5006614;28;20399;-77
2023/03/07 10:35:19;;;;;;;12.67;5.83;;;;;;;;;;5004534;28;20064;-77
2023/03/07 10:37:59;;;;;;;10.77;5.03;;;;;;;;;;5006511;28;20379;-80
2023/03/07 10:40:27;;;;;;;12.83;5.97;;;;;;;;;;5006354;28;20061;-78
2023/03/07 10:42:54;;;;;;;12.43;6.33;;;;;;;;;;5002772;28;20031;-78
2023/03/07 10:45:20;;;;;;;12.23;6.60;;;;;;;;;;4998219;28;20108;-80
2023/03/07 10:47:46;;;;;;;11.27;5.67;;;;;;;;;;5008055;28;20021;-78
2023/03/07 10:50:36;;;;;;;13.17;6.33;;;;;;;;;;5011958;28;20038;-77
2023/03/07 10:53:03;;;;;;;16.23;6.47;;;;;;;;;;5009660;28;20052;-76
2023/03/07 10:55:34;;;;;;;11.17;5.53;;;;;;;;;;5003794;28;20029;-78
2023/03/07 10:58:24;;;;;;;10.60;5.67;;;;;;;;;;5009861;28;20332;-80
2023/03/07 11:01:05;;;;;;;13.80;5.97;;;;;;;;;;5008229;28;20053;-80
2023/03/07 11:03:42;;;;;;;9.70;5.97;;;;;;;;;;5008596;28;20022;-78
2023/03/07 11:06:29;;;;;;;10.18;5.97;;;;;;;;;;5006006;28;20044;-79
2023/03/07 11:08:57;;;;;;;10.20;4.90;;;;;;;;;;5007178;28;20025;-80
2023/03/07 11:11:30;;;;;;;10.30;5.73;;;;;;;;;;5009512;28;20087;-80
2023/03/07 11:14:12;;;;;;;10.83;4.60;;;;;;;;;;5011060;28;20028;-78
2023/03/07 11:16:56;;;;;;;10.20;5.55;;;;;;;;;;5008038;28;20357;-78
2023/03/07 11:19:41;;;;;;;9.57;5.27;;;;;;;;;;5001873;28;20022;-79
2023/03/07 11:22:23;;;;;;;11.90;5.40;;;;;;;;;;5026653;28;20037;-78
2023/03/07 11:24:48;;;;;;;;;;;;;;;;;;5008843;28;20374;-78
2023/03/07 11:28:08;;;;;;;9.17;5.63;;;;;;;;;;5011296;28;19927;-78
2023/03/07 11:30:53;;;;;;;9.88;5.90;;;;;;;;;;5000055;28;20390;-77
2023/03/07 11:33:37;;;;;;;9.18;5.10;;;;;;;;;;5009984;28;20116;-77
2023/03/07 11:36:23;;;;;;;8.65;5.38;;;;;;;;;;5002711;28;20128;-78
2023/03/07 11:39:01;;;;;;;10.48;5.35;;;;;;;;;;5007965;28;20062;-77
2023/03/07 11:41:35;;;;;;;6.47;4.18;;;;;;;;;;5010436;28;20104;-76
2023/03/07 11:44:12;;;;;;;10.18;5.25;;;;;;;;;;5010133;28;20065;-77
2023/03/07 11:47:32;;;;;;;8.55;5.00;;;;;;;;;;5010487;28;20108;-78
2023/03/07 11:50:17;;;;;;;12.38;5.53;;;;;;;;;;5027640;28;20057;-79
2023/03/07 11:53:19;;;;;;;8.25;5.05;;;;;;;;;;5027205;28;20025;-78
2023/03/07 11:55:53;;;;;;;8.88;4.60;;;;;;;;;;5008159;28;20474;-78
2023/03/07 11:58:40;;;;;;;14.00;5.10;;;;;;;;;;5007170;28;20117;-78
2023/03/07 12:01:36;;;;;;;9.32;5.07;;;;;;;;;;4994228;28;20117;-79
2023/03/07 12:04:10;;;;;;;15.85;6.38;;;;;;;;;;4997965;28;20037;-79
2023/03/07 12:07:10;;;;;;;9.60;4.82;;;;;;;;;;5003109;28;20077;-80
2023/03/07 12:09:55;;;;;;;11.35;6.03;;;;;;;;;;4999968;28;20112;-81
2023/03/07 12:12:42;;;;;;;11.82;5.63;;;;;;;;;;5012763;28;20453;-81
2023/03/07 12:15:20;;;;;;;9.63;5.45;;;;;;;;;;5007401;28;20038;-78
2023/03/07 12:17:58;;;;;;;9.75;5.03;;;;;;;;;;5004454;28;20049;-82
2023/03/07 12:20:50;;;;;;;9.50;4.88;;;;;;;;;;5002229;28;20117;-80
2023/03/07 12:24:02;;;;;;;8.00;4.88;;;;;;;;;;5000272;28;20045;-80
2023/03/07 12:26:40;;;;;;;9.75;4.85;;;;;;;;;;5003035;28;20030;-81
2023/03/07 12:29:16;;;;;;;15.48;6.30;;;;;;;;;;5012546;28;20117;-80
2023/03/07 12:31:45;;;;;;;10.23;6.05;;;;;;;;;;5004645;28;20124;-77
2023/03/07 12:34:23;;;;;;;8.85;4.97;;;;;;;;;;5002043;28;20030;-81
2023/03/07 12:36:52;;;;;;;11.02;4.93;;;;;;;;;;5003887;28;20030;-81
2023/03/07 12:39:54;;;;;;;9.10;5.80;;;;;;;;;;5001583;28;20180;-82
2023/03/07 12:42:30;;;;;;;12.57;5.68;;;;;;;;;;4995226;28;20032;-80
2023/03/07 12:45:02;;;;;;;10.23;5.15;;;;;;;;;;5002580;28;20342;-80
2023/03/07 12:47:53;;;;;;;9.70;5.03;;;;;;;;;;5002212;28;20033;-77
2023/03/07 12:50:30;;;;;;;7.90;4.55;;;;;;;;;;5001967;28;20120;-78
2023/03/07 12:53:37;;;;;;;8.15;4.22;;;;;;;;;;4999690;28;20116;-82
2023/03/07 12:56:16;;;;;;;7.50;4.10;;;;;;;;;;4999182;28;20049;-78
2023/03/07 12:59:22;;;;;;;9.35;4.90;;;;;;;;;;5001354;28;20025;-80
2023/03/07 13:01:58;;;;;;;8.80;4.75;;;;;;;;;;5008092;28;20245;-80
2023/03/07 13:04:36;;;;;;;18.88;5.28;;;;;;;;;;5001083;28;20107;-78
2023/03/07 13:07:19;;;;;;;7.93;3.85;;;;;;;;;;5001692;28;20037;-80
2023/03/07 13:09:47;;;;;;;6.75;3.67;;;;;;;;;;5000373;28;20105;-80
2023/03/07 13:12:18;;;;;;;8.65;4.30;;;;;;;;;;5000861;28;20026;-82
2023/03/07 13:15:03;;;;;;;9.13;4.40;;;;;;;;;;4997615;28;20539;-80
2023/03/07 13:17:29;;;;;;;9.65;4.40;;;;;;;;;;5003825;28;20477;-82
2023/03/07 13:19:57;;;;;;;6.95;3.80;;;;;;;;;;5001363;28;20022;-81
2023/03/07 13:22:22;;;;;;;10.30;4.80;;;;;;;;;;5000738;28;20599;-80
2023/03/07 13:24:52;;;;;;;7.22;4.20;;;;;;;;;;4998537;28;20030;-82
2023/03/07 13:27:20;;;;;;;9.70;4.50;;;;;;;;;;5012407;28;20060;-79
2023/03/07 13:30:04;;;;;;;10.00;5.68;;;;;;;;;;4997908;28;20025;-79
2023/03/07 13:32:55;;;;;;;7.60;4.40;;;;;;;;;;5001929;28;20152;-79
2023/03/07 13:35:30;;;;;;;9.95;4.90;;;;;;;;;;5002866;28;20033;-80
2023/03/07 13:37:58;;;;;;;10.20;4.95;;;;;;;;;;5004285;28;20045;-79
2023/03/07 13:40:24;;;;;;;8.07;4.80;;;;;;;;;;5008037;28;20042;-77
2023/03/07 13:42:50;;;;;;;10.13;5.80;;;;;;;;;;5001386;28;21550;-80
2023/03/07 13:45:38;;;;;;;8.43;4.30;;;;;;;;;;4999392;28;20026;-79
2023/03/07 13:48:09;;;;;;;12.23;5.07;;;;;;;;;;5006595;28;20030;-79
2023/03/07 13:50:34;;;;;;;9.50;4.75;;;;;;;;;;5012292;28;20030;-79
2023/03/07 13:53:15;;;;;;;8.90;5.17;;;;;;;;;;4987383;28;20482;-78
2023/03/07 13:55:45;;;;;;;10.37;5.07;;;;;;;;;;5005936;28;20026;-79
2023/03/07 13:58:33;;;;;;;13.63;5.43;;;;;;;;;;5003868;28;20413;-78
2023/03/07 14:01:45;;;;;;;10.07;5.53;;;;;;;;;;5003675;28;20030;-80
2023/03/07 14:04:36;;;;;;;8.45;5.32;;;;;;;;;;5003441;28;20034;-80
2023/03/07 14:07:11;;;;;;;12.93;5.90;;;;;;;;;;4993618;28;20041;-78
2023/03/07 14:09:43;;;;;;;11.77;5.50;;;;;;;;;;4999457;28;20518;-76
2023/03/07 14:12:33;;;;;;;10.17;5.57;;;;;;;;;;4996942;28;20038;-79
2023/03/07 14:15:27;;;;;;;11.70;6.20;;;;;;;;;;5002984;28;20105;-80
2023/03/07 14:18:17;;;;;;;11.23;6.07;;;;;;;;;;5007037;28;20197;-80
2023/03/07 14:21:11;;;;;;;11.23;6.30;;;;;;;;;;5004285;28;20056;-78
2023/03/07 14:23:58;;;;;;;10.10;5.60;;;;;;;;;;5004671;28;20109;-80
2023/03/07 14:26:32;;;;;;;9.17;5.03;;;;;;;;;;5008737;28;20041;-81
2023/03/07 14:29:22;;;;;;;13.13;6.00;;;;;;;;;;5000223;28;20037;-82
2023/03/07 14:31:59;;;;;;;8.97;5.13;;;;;;;;;;5020461;28;20033;-80
2023/03/07 14:34:28;;;;;;;8.90;5.27;;;;;;;;;;5004558;28;20030;-80
2023/03/07 14:36:58;;;;;;;12.27;4.70;;;;;;;;;;5007245;28;20036;-81
2023/03/07 14:39:44;;;;;;;9.23;5.30;;;;;;;;;;5000770;28;20100;-80
2023/03/07 14:42:39;;;;;;;7.37;4.37;;;;;;;;;;5015533;28;20133;-80
2023/03/07 14:45:40;;;;;;;9.70;5.27;;;;;;;;;;5008503;28;20029;-78
2023/03/07 14:48:37;;;;;;;9.57;5.30;;;;;;;;;;5015029;28;20052;-78
2023/03/07 14:51:15;;;;;;;10.23;5.10;;;;;;;;;;5008399;28;20058;-82
2023/03/07 14:53:41;;;;;;;10.03;5.57;;;;;;;;;;5002215;28;20037;-81
2023/03/07 14:56:08;;;;;;;12.50;5.50;;;;;;;;;;5009322;28;20045;-79